createdAt,value
2022-09-17T00:01:40.414Z,97858.28
2022-09-17T00:04:53.382Z,97859.77
2022-09-17T00:08:05.335Z,97849.13
2022-09-17T00:11:21.128Z,97840.17
2022-09-17T00:14:32.799Z,97842.83
2022-09-17T00:17:44.413Z,97850.66
2022-09-17T00:20:56.109Z,97840.23
2022-09-17T00:24:10.814Z,97839.41
2022-09-17T00:27:22.361Z,97837.79
2022-09-17T00:30:34.104Z,97845.78
2022-09-17T00:33:45.948Z,97847.42
2022-09-17T00:36:57.754Z,97857.07
2022-09-17T00:40:14.682Z,97850.26
2022-09-17T00:43:43.212Z,97845.42
2022-09-17T00:46:58.175Z,97860.70
2022-09-17T00:50:13.897Z,97863.02
2022-09-17T00:53:28.494Z,97861.31
2022-09-17T00:56:44.866Z,97847.70
2022-09-17T00:59:56.826Z,97849.49
2022-09-17T01:03:09.720Z,97842.35
2022-09-17T01:06:29.805Z,97846.00
2022-09-17T01:09:48.785Z,97837.36
2022-09-17T01:13:13.465Z,97834.70
2022-09-17T01:16:31.741Z,97845.70
2022-09-17T01:20:25.858Z,97838.05
2022-09-17T01:24:30.419Z,97843.39
2022-09-17T01:28:19.051Z,97845.23
2022-09-17T01:31:42.564Z,97851.59
2022-09-17T01:34:59.944Z,97848.47
2022-09-17T01:38:17.934Z,97849.81
2022-09-17T01:41:36.952Z,97853.48
2022-09-17T01:44:56.570Z,97851.14
2022-09-17T01:48:13.957Z,97855.63
2022-09-17T01:51:30.110Z,97860.28
2022-09-17T01:54:47.299Z,97862.41
2022-09-17T01:58:03.387Z,97858.61
2022-09-17T02:01:18.239Z,97850.47
2022-09-17T02:04:36.445Z,97847.81
2022-09-17T02:07:54.213Z,97854.80
2022-09-17T02:11:12.443Z,97854.45
2022-09-17T02:14:29.004Z,97850.82
2022-09-17T02:17:46.670Z,97853.79
2022-09-17T02:21:04.641Z,97859.93
2022-09-17T02:24:21.979Z,97855.77
2022-09-17T02:27:47.259Z,97855.11
2022-09-17T02:30:59.907Z,97863.41
2022-09-17T02:34:12.891Z,97866.39
2022-09-17T02:37:24.643Z,97875.03
2022-09-17T02:40:41.968Z,97866.41
2022-09-17T02:44:02.531Z,97864.24
2022-09-17T02:47:41.522Z,97860.44
2022-09-17T02:51:11.118Z,97846.98
2022-09-17T02:54:30.260Z,97857.29
2022-09-17T02:57:48.031Z,97845.66
2022-09-17T03:01:01.938Z,97840.20
2022-09-17T03:04:17.350Z,97842.86
2022-09-17T03:07:32.639Z,97838.02
2022-09-17T03:10:44.711Z,97839.17
2022-09-17T03:13:58.109Z,97830.89
2022-09-17T03:17:10.345Z,97817.61
2022-09-17T03:20:22.178Z,97823.57
2022-09-17T03:23:33.952Z,97824.89
2022-09-17T03:26:47.610Z,97828.50
2022-09-17T03:29:59.575Z,97821.69
2022-09-17T03:33:11.161Z,97828.12
2022-09-17T03:36:22.812Z,97827.12
2022-09-17T03:39:34.566Z,97830.44
2022-09-17T03:42:46.463Z,97824.27
2022-09-17T03:45:58.100Z,97831.22
2022-09-17T03:49:10.036Z,97827.40
2022-09-17T03:52:22.364Z,97822.56
2022-09-17T03:55:34.114Z,97816.45
2022-09-17T03:58:45.926Z,97814.48
2022-09-17T04:01:57.855Z,97815.98
2022-09-17T04:05:12.199Z,97807.19
2022-09-17T04:08:23.883Z,97791.93
2022-09-17T04:11:35.725Z,97812.16
2022-09-17T04:14:47.376Z,97803.53
2022-09-17T04:18:01.835Z,97801.89
2022-09-17T04:21:14.039Z,97797.90
2022-09-17T04:24:25.783Z,97799.69
2022-09-17T04:27:37.334Z,97798.98
2022-09-17T04:30:48.832Z,97798.81
2022-09-17T04:34:00.614Z,97811.02
2022-09-17T04:37:13.368Z,97816.95
2022-09-17T04:40:25.194Z,97814.94
2022-09-17T04:43:37.078Z,97823.22
2022-09-17T04:46:48.686Z,97825.23
2022-09-17T04:50:00.450Z,97830.20
2022-09-17T04:53:12.614Z,97830.37
2022-09-17T04:56:24.755Z,97822.25
2022-09-17T04:59:36.368Z,97818.00
2022-09-17T05:02:49.340Z,97816.02
2022-09-17T05:06:01.216Z,97801.80
2022-09-17T05:09:13.164Z,97801.00
2022-09-17T05:12:24.832Z,97802.34
2022-09-17T05:15:36.491Z,97802.73
2022-09-17T05:18:49.672Z,97808.58
2022-09-17T05:22:01.357Z,97806.44
2022-09-17T05:25:15.473Z,97808.98
2022-09-17T05:28:27.684Z,97812.98
2022-09-17T05:31:39.661Z,97799.72
2022-09-17T05:34:51.613Z,97801.34
2022-09-17T05:38:07.667Z,97802.30
2022-09-17T05:41:19.786Z,97792.66
2022-09-17T05:44:31.829Z,97782.30
2022-09-17T05:47:43.373Z,97784.54
2022-09-17T05:50:55.347Z,97793.83
2022-09-17T05:54:06.902Z,97810.95
2022-09-17T05:57:20.554Z,97825.91
2022-09-17T06:00:32.377Z,97810.47
2022-09-17T06:03:44.555Z,97799.66
2022-09-17T06:06:56.158Z,97806.41
2022-09-17T06:10:09.503Z,97817.36
2022-09-17T06:13:21.554Z,97800.48
2022-09-17T06:16:33.822Z,97787.38
2022-09-17T06:19:45.557Z,97793.48
2022-09-17T06:23:01.540Z,97796.73
2022-09-17T06:26:13.612Z,97795.11
2022-09-17T06:29:25.587Z,97787.97
2022-09-17T06:32:37.160Z,97784.05
2022-09-17T06:35:48.869Z,97795.38
2022-09-17T06:39:01.122Z,97801.57
2022-09-17T06:42:13.807Z,97801.20
2022-09-17T06:45:25.498Z,97795.48
2022-09-17T06:48:39.741Z,97793.57
2022-09-17T06:51:51.431Z,97796.59
2022-09-17T06:55:02.997Z,97796.50
2022-09-17T06:58:14.895Z,97790.81
2022-09-17T07:01:26.711Z,97781.42
2022-09-17T07:04:38.420Z,97798.33
2022-09-17T07:07:50.456Z,97793.47
2022-09-17T07:11:04.136Z,97799.77
2022-09-17T07:14:15.761Z,97801.09
2022-09-17T07:17:27.430Z,97803.03
2022-09-17T07:20:39.154Z,97800.19
2022-09-17T07:23:50.785Z,97800.99
2022-09-17T07:27:02.543Z,97802.38
2022-09-17T07:30:18.250Z,97807.44
2022-09-17T07:33:32.838Z,97807.13
2022-09-17T07:36:44.521Z,97816.52
2022-09-17T07:39:56.206Z,97825.76
2022-09-17T07:43:09.136Z,97826.59
2022-09-17T07:46:24.255Z,97853.73
2022-09-17T07:49:36.372Z,97843.00
2022-09-17T07:52:52.754Z,97836.66
2022-09-17T07:56:08.586Z,97844.31
2022-09-17T07:59:21.233Z,97840.11
2022-09-17T08:02:32.838Z,97834.60
2022-09-17T08:05:44.496Z,97838.41
2022-09-17T08:08:56.186Z,97825.70
2022-09-17T08:12:08.422Z,97817.50
2022-09-17T08:15:20.332Z,97821.66
2022-09-17T08:18:32.134Z,97814.31
2022-09-17T08:21:43.992Z,97822.60
2022-09-17T08:24:55.540Z,97811.00
2022-09-17T08:28:07.571Z,97811.54
2022-09-17T08:31:21.092Z,97815.98
2022-09-17T08:34:32.606Z,97818.23
2022-09-17T08:37:44.325Z,97812.69
2022-09-17T08:41:06.976Z,97802.05
2022-09-17T08:44:30.618Z,97812.47
2022-09-17T08:47:45.379Z,97814.68
2022-09-17T08:51:03.296Z,97810.45
2022-09-17T08:54:17.347Z,97807.02
2022-09-17T08:57:34.174Z,97813.81
2022-09-17T09:00:51.104Z,97803.34
2022-09-17T09:04:11.916Z,97802.61
2022-09-17T09:07:28.103Z,97791.39
2022-09-17T09:10:47.497Z,97795.28
2022-09-17T09:14:04.951Z,97784.28
2022-09-17T09:17:17.558Z,97771.64
2022-09-17T09:20:36.206Z,97765.27
2022-09-17T09:23:57.975Z,97763.23
2022-09-17T09:27:21.595Z,97781.80
2022-09-17T09:30:42.250Z,97785.19
2022-09-17T09:33:55.421Z,97795.75
2022-09-17T09:37:16.669Z,97808.73
2022-09-17T09:40:40.529Z,97812.59
2022-09-17T09:44:12.434Z,97814.97
2022-09-17T09:47:38.321Z,97820.61
2022-09-17T09:51:06.058Z,97823.70
2022-09-17T09:54:27.730Z,97816.02
2022-09-17T09:57:47.613Z,97809.78
2022-09-17T10:00:59.517Z,97808.73
2022-09-17T10:04:21.367Z,97823.50
2022-09-17T10:07:34.046Z,97838.98
2022-09-17T10:11:02.879Z,97833.84
2022-09-17T10:14:31.401Z,97836.73
2022-09-17T10:17:43.028Z,97842.61
2022-09-17T10:21:04.652Z,97827.69
2022-09-17T10:24:24.504Z,97824.39
2022-09-17T10:27:36.963Z,97825.55
2022-09-17T10:31:08.475Z,97825.39
2022-09-17T10:34:27.285Z,97833.27
2022-09-17T10:37:53.293Z,97824.55
2022-09-17T10:41:24.805Z,97822.03
2022-09-17T10:44:39.502Z,97827.91
2022-09-17T10:47:52.301Z,97829.83
2022-09-17T10:51:06.778Z,97834.30
2022-09-17T10:54:44.933Z,97823.16
2022-09-17T10:58:18.250Z,97819.72
2022-09-17T11:01:40.603Z,97819.96
2022-09-17T11:04:58.279Z,97808.58
2022-09-17T11:08:16.917Z,97813.53
2022-09-17T11:11:41.294Z,97798.20
2022-09-17T11:15:03.915Z,97828.78
2022-09-17T11:18:46.055Z,97825.81
2022-09-17T11:22:03.907Z,97827.06
2022-09-17T11:25:41.504Z,97827.50
2022-09-17T11:29:03.298Z,97824.20
2022-09-17T11:32:22.678Z,97833.65
2022-09-17T11:35:39.570Z,97821.23
2022-09-17T11:38:54.767Z,97836.27
2022-09-17T11:42:11.402Z,97824.50
2022-09-17T11:45:29.332Z,97835.14
2022-09-17T11:48:47.283Z,97841.61
2022-09-17T11:52:03.763Z,97846.91
2022-09-17T11:55:22.742Z,97851.47
2022-09-17T11:58:43.943Z,97854.38
2022-09-17T12:02:00.393Z,97839.70
2022-09-17T12:05:20.418Z,97839.20
2022-09-17T12:08:36.956Z,97833.69
2022-09-17T12:11:55.314Z,97837.76
2022-09-17T12:15:14.776Z,97827.63
2022-09-17T12:18:36.102Z,97825.97
2022-09-17T12:21:52.000Z,97813.96
2022-09-17T12:25:06.674Z,97822.73
2022-09-17T12:28:23.001Z,97822.10
2022-09-17T12:31:42.491Z,97816.95
2022-09-17T12:35:00.347Z,97802.77
2022-09-17T12:38:26.426Z,97799.38
2022-09-17T12:41:47.345Z,97788.77
2022-09-17T12:45:11.707Z,97778.59
2022-09-17T12:48:56.169Z,97776.03
2022-09-17T12:52:12.277Z,97770.18
2022-09-17T12:55:51.193Z,97759.92
2022-09-17T12:59:20.351Z,97755.87
2022-09-17T13:02:37.732Z,97733.56
2022-09-17T13:06:23.530Z,97747.82
2022-09-17T13:10:12.868Z,97750.84
2022-09-17T13:13:39.216Z,97745.72
2022-09-17T13:16:56.316Z,97755.78
2022-09-17T13:20:10.111Z,97747.53
2022-09-17T13:23:22.413Z,97750.00
2022-09-17T13:26:45.651Z,97754.02
2022-09-17T13:30:08.234Z,97755.69
2022-09-17T13:33:32.242Z,97762.23
2022-09-17T13:36:51.899Z,97761.53
2022-09-17T13:40:04.888Z,97770.31
2022-09-17T13:43:22.606Z,97774.66
2022-09-17T13:46:35.518Z,97772.85
2022-09-17T13:49:57.101Z,97762.23
2022-09-17T13:53:19.469Z,97756.45
2022-09-17T13:56:42.996Z,97745.00
2022-09-17T14:00:04.277Z,97745.09
2022-09-17T14:03:58.064Z,97745.98
2022-09-17T14:07:37.911Z,97744.38
2022-09-17T14:10:51.255Z,97737.08
2022-09-17T14:14:21.765Z,97717.99
2022-09-17T14:17:58.934Z,97709.42
2022-09-17T14:21:24.269Z,97699.20
2022-09-17T14:24:53.153Z,97715.97
2022-09-17T14:28:10.482Z,97721.09
2022-09-17T14:31:28.384Z,97721.95
2022-09-17T14:34:42.422Z,97725.46
2022-09-17T14:38:02.336Z,97721.45
2022-09-17T14:41:23.782Z,97718.92
2022-09-17T14:44:37.542Z,97722.96
2022-09-17T14:47:49.366Z,97730.38
2022-09-17T14:51:20.585Z,97729.17
2022-09-17T14:54:36.531Z,97726.16
2022-09-17T14:57:50.224Z,97735.14
2022-09-17T15:01:02.473Z,97737.80
2022-09-17T15:04:32.503Z,97728.77
2022-09-17T15:07:45.261Z,97716.64
2022-09-17T15:11:01.612Z,97715.48
2022-09-17T15:14:22.262Z,97708.47
2022-09-17T15:17:36.586Z,97698.59
2022-09-17T15:20:49.269Z,97700.99
2022-09-17T15:24:05.629Z,97704.62
2022-09-17T15:27:24.840Z,97698.84
2022-09-17T15:30:36.773Z,97712.75
2022-09-17T15:33:49.235Z,97718.85
2022-09-17T15:37:22.709Z,97710.13
2022-09-17T15:40:39.302Z,97714.14
2022-09-17T15:43:51.927Z,97717.36
2022-09-17T15:47:23.538Z,97724.33
2022-09-17T15:50:37.450Z,97733.37
2022-09-17T15:53:59.819Z,97709.83
2022-09-17T15:57:17.694Z,97729.61
2022-09-17T16:00:31.818Z,97731.00
2022-09-17T16:04:23.860Z,97739.36
2022-09-17T16:07:37.207Z,97739.36
2022-09-17T16:10:48.780Z,97736.70
2022-09-17T16:14:02.608Z,97736.45
2022-09-17T16:17:44.765Z,97742.13
2022-09-17T16:20:57.544Z,97748.05
2022-09-17T16:24:09.985Z,97745.93
2022-09-17T16:27:27.024Z,97747.50
2022-09-17T16:30:39.553Z,97745.73
2022-09-17T16:33:51.697Z,97747.95
2022-09-17T16:37:05.507Z,97753.67
2022-09-17T16:40:19.893Z,97748.69
2022-09-17T16:43:33.869Z,97749.71
2022-09-17T16:46:47.661Z,97742.45
2022-09-17T16:49:59.609Z,97735.09
2022-09-17T16:53:11.469Z,97727.45
2022-09-17T16:56:23.906Z,97730.31
2022-09-17T16:59:35.960Z,97729.63
2022-09-17T17:02:47.915Z,97731.46
2022-09-17T17:05:59.912Z,97728.80
2022-09-17T17:09:12.359Z,97721.19
2022-09-17T17:12:24.179Z,97711.25
2022-09-17T17:15:36.723Z,97699.69
2022-09-17T17:18:51.406Z,97699.05
2022-09-17T17:22:03.329Z,97716.75
2022-09-17T17:25:17.214Z,97709.79
2022-09-17T17:28:29.070Z,97717.14
2022-09-17T17:31:40.937Z,97725.13
2022-09-17T17:34:53.454Z,97721.33
2022-09-17T17:38:05.202Z,97716.38
2022-09-17T17:41:21.866Z,97720.41
2022-09-17T17:44:33.709Z,97704.44
2022-09-17T17:47:47.938Z,97705.80
2022-09-17T17:50:59.924Z,97707.45
2022-09-17T17:54:12.470Z,97702.49
2022-09-17T17:57:24.457Z,97710.48
2022-09-17T18:00:36.432Z,97705.99
2022-09-17T18:03:48.818Z,97709.11
2022-09-17T18:07:00.880Z,97711.97
2022-09-17T18:10:14.639Z,97709.65
2022-09-17T18:13:26.605Z,97718.28
2022-09-17T18:16:38.721Z,97715.28
2022-09-17T18:19:51.527Z,97713.80
2022-09-17T18:23:03.240Z,97724.64
2022-09-17T18:26:17.974Z,97725.28
2022-09-17T18:29:30.009Z,97710.86
2022-09-17T18:32:42.080Z,97719.84
2022-09-17T18:35:56.521Z,97714.98
2022-09-17T18:42:28.936Z,97723.98
2022-09-17T18:45:41.753Z,97738.02
2022-09-17T18:48:57.478Z,97748.37
2022-09-17T18:52:09.736Z,97744.91
2022-09-17T18:55:18.247Z,97750.05
2022-09-17T18:58:31.768Z,97745.37
2022-09-17T19:01:43.911Z,97736.27
2022-09-17T19:04:57.008Z,97737.08
2022-09-17T19:08:09.175Z,97732.77
2022-09-17T19:11:21.223Z,97726.61
2022-09-17T19:14:32.985Z,97719.80
2022-09-17T19:17:45.176Z,97716.80
2022-09-17T19:20:57.146Z,97714.66
2022-09-17T19:24:10.592Z,97714.66
2022-09-17T19:27:22.497Z,97713.83
2022-09-17T19:30:35.520Z,97706.03
2022-09-17T19:33:48.090Z,97712.19
2022-09-17T19:37:01.256Z,97710.36
2022-09-17T19:40:16.258Z,97713.89
2022-09-17T19:43:30.289Z,97718.30
2022-09-17T19:46:43.449Z,97717.45
2022-09-17T19:49:55.980Z,97709.01
2022-09-17T19:53:09.215Z,97716.99
2022-09-17T19:56:23.941Z,97698.36
2022-09-17T19:59:35.831Z,97702.70
2022-09-17T20:02:48.674Z,97704.86
2022-09-17T20:06:09.660Z,97716.72
2022-09-17T20:09:22.844Z,97720.37
2022-09-17T20:12:34.548Z,97713.74
2022-09-17T20:15:46.512Z,97718.41
2022-09-17T20:19:00.030Z,97718.41
2022-09-17T20:22:13.893Z,97720.09
2022-09-17T20:25:26.977Z,97712.45
2022-09-17T20:28:39.873Z,97701.80
2022-09-17T20:31:51.486Z,97707.77
2022-09-17T20:35:03.816Z,97703.09
2022-09-17T20:41:31.617Z,97697.13
2022-09-17T20:44:43.269Z,97700.44
2022-09-17T20:47:57.742Z,97698.15
2022-09-17T20:51:11.625Z,97692.17
2022-09-17T20:54:23.554Z,97694.19
2022-09-17T20:57:37.587Z,97699.52
2022-09-17T21:00:49.384Z,97694.53
2022-09-17T21:04:01.901Z,97695.55
2022-09-17T21:07:13.670Z,97687.72
2022-09-17T21:10:25.465Z,97692.42
2022-09-17T21:13:37.315Z,97689.27
2022-09-17T21:16:49.171Z,97684.59
2022-09-17T21:20:00.931Z,97691.22
2022-09-17T21:23:12.656Z,97684.97
2022-09-17T21:26:27.016Z,97675.16
2022-09-17T21:29:38.850Z,97680.63
2022-09-17T21:32:50.649Z,97676.15
2022-09-17T21:36:10.622Z,97676.98
2022-09-17T21:39:23.768Z,97684.97
2022-09-17T21:42:37.476Z,97685.95
2022-09-17T21:45:49.121Z,97684.31
2022-09-17T21:49:02.708Z,97679.98
2022-09-17T21:52:14.366Z,97686.33
2022-09-17T21:55:26.136Z,97686.33
2022-09-17T21:58:38.324Z,97682.48
2022-09-17T22:01:52.248Z,97686.97
2022-09-17T22:05:04.049Z,97686.66
2022-09-17T22:08:15.637Z,97698.61
2022-09-17T22:11:29.790Z,97687.16
2022-09-17T22:14:41.468Z,97692.81
2022-09-17T22:17:53.066Z,97697.67
2022-09-17T22:21:05.288Z,97686.56
2022-09-17T22:24:17.860Z,97691.52
2022-09-17T22:27:29.449Z,97690.67
2022-09-17T22:30:42.402Z,97691.52
2022-09-17T22:33:55.548Z,97694.36
2022-09-17T22:37:07.165Z,97693.05
2022-09-17T22:40:19.085Z,97696.70
2022-09-17T22:43:30.777Z,97700.38
2022-09-17T22:46:44.197Z,97700.69
2022-09-17T22:49:55.737Z,97700.38
2022-09-17T22:53:07.291Z,97699.20
2022-09-17T22:56:21.718Z,97704.68
2022-09-17T22:59:33.356Z,97700.02
2022-09-17T23:02:45.175Z,97709.01
2022-09-17T23:05:57.027Z,97700.38
2022-09-17T23:09:09.076Z,97701.05
2022-09-17T23:12:21.588Z,97689.11
2022-09-17T23:15:33.814Z,97689.16
2022-09-17T23:18:46.065Z,97687.20
2022-09-17T23:21:57.649Z,97684.58
2022-09-17T23:25:10.276Z,97690.73
2022-09-17T23:28:21.884Z,97688.59
2022-09-17T23:31:35.453Z,97685.16
2022-09-17T23:34:47.193Z,97684.00
2022-09-17T23:37:58.871Z,97676.39
2022-09-17T23:41:21.487Z,97673.73
2022-09-17T23:44:33.325Z,97675.08
2022-09-17T23:47:45.268Z,97666.78
2022-09-17T23:50:56.868Z,97660.16
2022-09-17T23:54:09.447Z,97665.98
2022-09-17T23:57:22.828Z,97655.06
